createdAt,value
2024-04-08T03:42:18.865Z,99798.94
2024-04-08T03:44:53.495Z,99799.22
2024-04-08T03:47:20.500Z,99794.81
2024-04-08T03:49:47.779Z,99797.00
2024-04-08T03:52:14.709Z,99787.03
2024-04-08T03:54:41.610Z,99787.69
2024-04-08T03:57:08.517Z,99790.94
2024-04-08T03:59:35.795Z,99785.53
2024-04-08T04:02:02.935Z,99784.38
2024-04-08T04:04:29.857Z,99786.88
2024-04-08T04:06:56.774Z,99785.31
2024-04-08T04:09:23.710Z,99782.91
2024-04-08T04:11:51.307Z,99778.22
2024-04-08T04:14:18.286Z,99782.63
2024-04-08T04:16:45.296Z,99781.25
2024-04-08T04:19:12.265Z,99770.50
2024-04-08T04:21:39.268Z,99776.06
2024-04-08T04:24:06.300Z,99773.72
2024-04-08T04:26:33.256Z,99774.47
2024-04-08T04:29:00.215Z,99775.66
2024-04-08T04:31:27.128Z,99776.22
2024-04-08T04:33:54.054Z,99773.41
2024-04-08T04:36:20.990Z,99778.66
2024-04-08T04:38:47.942Z,99778.13
2024-04-08T04:41:17.856Z,99777.44
2024-04-08T04:43:44.778Z,99767.66
2024-04-08T04:46:12.362Z,99773.50
2024-04-08T04:48:39.284Z,99768.66
2024-04-08T04:51:06.210Z,99761.75
2024-04-08T04:53:33.170Z,99758.13
2024-04-08T04:56:00.090Z,99768.63
2024-04-08T04:58:26.975Z,99770.38
2024-04-08T05:00:54.244Z,99767.03
2024-04-08T05:03:21.181Z,99769.22
2024-04-08T05:05:53.082Z,99769.22
2024-04-08T05:08:20.103Z,99778.50
2024-04-08T05:10:47.056Z,99774.84
2024-04-08T05:13:15.544Z,99776.75
2024-04-08T05:15:42.441Z,99778.13
2024-04-08T05:18:09.404Z,99777.84
2024-04-08T05:20:36.411Z,99781.66
2024-04-08T05:23:05.698Z,99794.03
2024-04-08T05:25:32.615Z,99797.56
2024-04-08T05:27:59.535Z,99803.50
2024-04-08T05:30:27.359Z,99804.97
2024-04-08T05:32:54.464Z,99810.22
2024-04-08T05:35:21.468Z,99808.16
2024-04-08T05:37:48.410Z,99813.25
2024-04-08T05:40:18.107Z,99819.78
2024-04-08T05:42:45.026Z,99853.88
2024-04-08T05:45:11.948Z,99882.13
2024-04-08T05:47:39.073Z,99875.34
2024-04-08T05:50:06.049Z,99847.72
2024-04-08T05:52:34.144Z,99881.56
2024-04-08T05:55:01.149Z,99887.50
2024-04-08T05:57:28.076Z,99854.00
2024-04-08T05:59:55.049Z,99894.75
2024-04-08T06:02:22.055Z,99863.22
2024-04-08T06:04:52.180Z,99856.81
2024-04-08T06:07:19.827Z,99887.03
2024-04-08T06:09:46.736Z,99873.47
2024-04-08T06:12:13.655Z,99855.50
2024-04-08T06:14:40.581Z,99835.09
2024-04-08T06:17:07.520Z,99845.00
2024-04-08T06:19:34.436Z,99863.63
2024-04-08T06:22:01.635Z,99854.34
2024-04-08T06:24:28.538Z,99856.38
2024-04-08T06:26:55.481Z,99877.97
2024-04-08T06:29:22.419Z,99880.91
2024-04-08T06:31:49.982Z,99884.44
2024-04-08T06:34:17.030Z,99883.94
2024-04-08T06:36:44.543Z,99885.88
2024-04-08T06:39:11.785Z,99880.78
2024-04-08T06:41:38.817Z,99892.00
2024-04-08T06:44:05.841Z,99894.91
2024-04-08T06:46:32.753Z,99892.53
2024-04-08T06:48:59.656Z,99900.81
2024-04-08T06:51:26.593Z,99909.22
2024-04-08T06:53:53.546Z,99911.69
2024-04-08T06:56:20.455Z,99908.88
2024-04-08T06:58:49.112Z,99914.19
2024-04-08T07:01:16.132Z,99900.59
2024-04-08T07:03:43.058Z,99904.91
2024-04-08T07:06:10.102Z,99894.03
2024-04-08T07:08:37.096Z,99894.31
2024-04-08T07:11:04.087Z,99900.31
2024-04-08T07:13:31.060Z,99888.00
2024-04-08T07:15:58.623Z,99889.84
2024-04-08T07:18:25.712Z,99888.53
2024-04-08T07:20:52.645Z,99887.91
2024-04-08T07:23:19.574Z,99894.06
2024-04-08T07:25:46.526Z,99890.88
2024-04-08T07:28:13.465Z,99898.03
2024-04-08T07:30:40.378Z,99896.47
2024-04-08T07:33:07.382Z,99882.53
2024-04-08T07:35:34.372Z,99891.56
2024-04-08T07:38:01.288Z,99890.75
2024-04-08T07:40:28.312Z,99902.94
2024-04-08T07:42:55.221Z,99891.53
2024-04-08T07:45:22.262Z,99897.44
2024-04-08T07:47:49.266Z,99907.00
2024-04-08T07:50:16.209Z,99903.25
2024-04-08T07:52:43.125Z,99906.47
2024-04-08T07:55:10.714Z,99899.19
2024-04-08T07:57:37.660Z,99901.50
2024-04-08T08:00:05.550Z,99901.81
2024-04-08T08:02:32.600Z,99893.84
2024-04-08T08:04:59.514Z,99898.56
2024-04-08T08:07:26.505Z,99896.72
2024-04-08T08:09:54.041Z,99899.75
2024-04-08T08:12:20.947Z,99888.78
2024-04-08T08:14:47.931Z,99887.19
2024-04-08T08:17:14.870Z,99904.34
2024-04-08T08:19:41.790Z,99901.97
2024-04-08T08:22:08.705Z,99897.50
2024-04-08T08:24:36.590Z,99894.75
2024-04-08T08:27:03.536Z,99892.84
2024-04-08T08:29:30.581Z,99887.13
2024-04-08T08:32:00.600Z,99900.41
2024-04-08T08:34:28.404Z,99889.88
2024-04-08T08:36:55.324Z,99887.78
2024-04-08T08:39:22.272Z,99890.28
2024-04-08T08:41:52.572Z,99886.94
2024-04-08T08:44:22.455Z,99879.41
2024-04-08T08:46:49.440Z,99885.47
2024-04-08T08:49:19.311Z,99875.41
2024-04-08T08:51:46.227Z,99883.72
2024-04-08T08:54:13.251Z,99876.81
2024-04-08T08:56:40.253Z,99874.16
2024-04-08T08:59:08.386Z,99878.53
2024-04-08T09:01:35.347Z,99884.25
2024-04-08T09:04:08.700Z,99876.44
2024-04-08T09:06:37.531Z,99870.78
2024-04-08T09:09:04.526Z,99870.00
2024-04-08T09:11:31.738Z,99864.41
2024-04-08T09:14:07.999Z,99859.78
2024-04-08T09:16:34.998Z,99864.97
2024-04-08T09:19:03.050Z,99865.34
2024-04-08T09:21:29.982Z,99869.59
2024-04-08T09:24:06.045Z,99880.22
2024-04-08T09:26:33.041Z,99882.06
2024-04-08T09:29:00.289Z,99875.63
2024-04-08T09:31:27.232Z,99871.53
2024-04-08T09:33:54.179Z,99873.00
2024-04-08T09:36:21.131Z,99883.59
2024-04-08T09:38:48.288Z,99880.88
2024-04-08T09:41:15.330Z,99873.16
2024-04-08T09:43:42.513Z,99858.44
2024-04-08T09:46:09.416Z,99852.59
2024-04-08T09:48:36.348Z,99838.78
2024-04-08T09:51:04.232Z,99842.22
2024-04-08T09:53:34.158Z,99833.13
2024-04-08T09:56:08.748Z,99822.78
2024-04-08T09:58:36.769Z,99819.00
2024-04-08T10:01:07.359Z,99827.88
2024-04-08T10:03:35.385Z,99829.88
2024-04-08T10:06:02.315Z,99837.03
2024-04-08T10:08:29.254Z,99830.59
2024-04-08T10:10:56.180Z,99826.75
2024-04-08T10:13:23.114Z,99822.03
2024-04-08T10:15:50.200Z,99823.06
2024-04-08T10:18:17.197Z,99825.28
2024-04-08T10:20:44.893Z,99818.81
2024-04-08T10:23:12.443Z,99834.19
2024-04-08T10:25:39.671Z,99817.50
2024-04-08T10:28:06.706Z,99820.91
2024-04-08T10:30:34.224Z,99823.06
2024-04-08T10:33:01.858Z,99813.00
2024-04-08T10:35:28.820Z,99819.16
2024-04-08T10:37:55.761Z,99809.19
2024-04-08T10:40:23.095Z,99807.66
2024-04-08T10:42:52.018Z,99805.25
2024-04-08T10:45:19.307Z,99801.00
2024-04-08T10:47:46.392Z,99795.94
2024-04-08T10:50:13.333Z,99788.88
2024-04-08T10:52:40.797Z,99791.13
2024-04-08T10:55:08.664Z,99793.91
2024-04-08T10:57:35.579Z,99795.13
2024-04-08T11:00:02.770Z,99780.16
2024-04-08T11:02:29.733Z,99783.03
2024-04-08T11:04:56.658Z,99766.69
2024-04-08T11:07:23.572Z,99771.16
2024-04-08T11:09:50.499Z,99756.03
2024-04-08T11:12:17.593Z,99771.44
2024-04-08T11:14:46.845Z,99775.53
2024-04-08T11:17:15.576Z,99776.16
2024-04-08T11:19:45.510Z,99773.56
2024-04-08T11:22:12.449Z,99769.31
2024-04-08T11:24:44.946Z,99766.22
2024-04-08T11:27:11.893Z,99745.63
2024-04-08T11:29:39.100Z,99761.66
2024-04-08T11:32:06.607Z,99752.53
2024-04-08T11:34:33.527Z,99759.44
2024-04-08T11:37:03.005Z,99757.66
2024-04-08T11:39:31.119Z,99762.91
2024-04-08T11:41:58.130Z,99755.81
2024-04-08T11:44:31.571Z,99749.22
2024-04-08T11:46:58.540Z,99757.97
2024-04-08T11:49:25.549Z,99751.72
2024-04-08T11:51:52.473Z,99752.50
2024-04-08T11:54:19.876Z,99752.41
2024-04-08T11:56:47.014Z,99726.00
2024-04-08T11:59:13.982Z,99737.19
2024-04-08T12:01:44.434Z,99740.47
2024-04-08T12:04:12.291Z,99744.84
2024-04-08T12:06:39.285Z,99746.88
2024-04-08T12:09:06.849Z,99739.22
2024-04-08T12:11:33.828Z,99729.03
2024-04-08T12:14:00.782Z,99724.53
2024-04-08T12:16:27.850Z,99719.28
2024-04-08T12:18:57.484Z,99712.50
2024-04-08T12:21:24.489Z,99719.56
2024-04-08T12:23:55.060Z,99703.91
2024-04-08T12:26:21.996Z,99725.94
2024-04-08T12:28:48.935Z,99708.31
2024-04-08T12:31:15.854Z,99696.53
2024-04-08T12:33:42.840Z,99709.75
2024-04-08T12:36:10.788Z,99703.75
2024-04-08T12:38:37.865Z,99706.94
2024-04-08T12:41:04.906Z,99710.44
2024-04-08T12:43:42.966Z,99710.22
2024-04-08T12:46:18.142Z,99715.91
2024-04-08T12:48:45.175Z,99703.34
2024-04-08T12:51:12.188Z,99713.59
2024-04-08T12:53:39.389Z,99714.50
2024-04-08T12:56:08.506Z,99705.31
2024-04-08T12:58:35.432Z,99696.31
2024-04-08T13:01:02.397Z,99702.13
2024-04-08T13:03:29.502Z,99688.13
2024-04-08T13:05:56.471Z,99694.00
2024-04-08T13:08:23.403Z,99680.41
2024-04-08T13:10:50.310Z,99684.38
2024-04-08T13:13:17.244Z,99686.31
2024-04-08T13:15:44.177Z,99691.47
2024-04-08T13:18:11.240Z,99689.28
2024-04-08T13:20:38.187Z,99684.03
2024-04-08T13:23:05.155Z,99672.22
2024-04-08T13:25:34.809Z,99690.03
2024-04-08T13:28:04.027Z,99684.69
2024-04-08T13:30:31.055Z,99687.16
2024-04-08T13:32:58.135Z,99692.25
2024-04-08T13:35:25.152Z,99684.44
2024-04-08T13:37:52.086Z,99688.72
2024-04-08T13:40:19.067Z,99688.63
2024-04-08T13:42:46.099Z,99699.13
2024-04-08T13:45:13.064Z,99685.44
2024-04-08T13:47:40.057Z,99691.22
2024-04-08T13:50:07.203Z,99687.94
2024-04-08T13:52:34.098Z,99691.13
2024-04-08T13:55:01.106Z,99694.69
2024-04-08T13:57:28.414Z,99702.94
2024-04-08T13:59:55.424Z,99707.59
2024-04-08T14:02:22.402Z,99698.78
2024-04-08T14:04:49.365Z,99693.63
2024-04-08T14:07:16.313Z,99702.50
2024-04-08T14:09:43.209Z,99689.16
2024-04-08T14:12:10.169Z,99688.53
2024-04-08T14:14:37.175Z,99694.75
2024-04-08T14:17:04.197Z,99692.72
2024-04-08T14:19:31.118Z,99699.78
2024-04-08T14:21:58.059Z,99697.16
2024-04-08T14:24:25.101Z,99708.03
2024-04-08T14:26:52.152Z,99704.16
2024-04-08T14:29:25.225Z,99702.59
2024-04-08T14:31:54.354Z,99708.31
2024-04-08T14:34:21.400Z,99701.81
2024-04-08T14:36:49.359Z,99707.53
2024-04-08T14:39:28.771Z,99703.63
2024-04-08T14:42:03.251Z,99710.25
2024-04-08T14:44:40.201Z,99704.59
2024-04-08T14:47:12.442Z,99709.44
2024-04-08T14:49:39.442Z,99700.19
2024-04-08T14:52:10.657Z,99706.47
2024-04-08T14:54:39.704Z,99699.53
2024-04-08T14:57:06.866Z,99693.59
2024-04-08T14:59:33.788Z,99687.09
2024-04-08T15:02:00.716Z,99692.66
2024-04-08T15:04:27.746Z,99689.81
2024-04-08T15:06:54.719Z,99679.03
2024-04-08T15:09:21.761Z,99674.03
2024-04-08T15:11:49.107Z,99672.13
2024-04-08T15:14:16.081Z,99666.09
2024-04-08T15:16:42.993Z,99667.25
2024-04-08T15:19:09.957Z,99671.84
2024-04-08T15:21:36.964Z,99670.00
2024-04-08T15:24:03.930Z,99667.94
2024-04-08T15:26:30.882Z,99661.13
2024-04-08T15:28:57.803Z,99668.56
2024-04-08T15:31:24.948Z,99656.22
2024-04-08T15:33:52.082Z,99656.19
2024-04-08T15:36:19.131Z,99650.59
2024-04-08T15:38:46.064Z,99659.09
2024-04-08T15:41:13.222Z,99655.69
2024-04-08T15:43:40.129Z,99652.09
2024-04-08T15:46:07.210Z,99656.41
2024-04-08T15:48:34.512Z,99653.41
2024-04-08T15:51:04.941Z,99649.19
2024-04-08T15:53:32.065Z,99662.28
2024-04-08T15:55:59.408Z,99662.50
2024-04-08T15:58:26.822Z,99653.13
2024-04-08T16:00:57.438Z,99657.53
2024-04-08T16:03:24.582Z,99661.41
2024-04-08T16:05:51.693Z,99659.94
2024-04-08T16:08:18.690Z,99654.88
2024-04-08T16:10:45.586Z,99663.53
2024-04-08T16:13:12.509Z,99656.38
2024-04-08T16:15:39.432Z,99652.00
2024-04-08T16:18:06.806Z,99653.56
2024-04-08T16:20:33.790Z,99659.75
2024-04-08T16:23:14.732Z,99651.81
2024-04-08T16:25:56.779Z,99645.53
2024-04-08T16:28:23.706Z,99647.03
2024-04-08T16:31:03.817Z,99651.97
2024-04-08T16:33:32.189Z,99649.50
2024-04-08T16:35:59.329Z,99648.66
2024-04-08T16:38:26.355Z,99656.63
2024-04-08T16:40:53.523Z,99645.69
2024-04-08T16:43:20.760Z,99652.00
2024-04-08T16:45:54.195Z,99649.47
2024-04-08T16:48:22.408Z,99641.84
2024-04-08T16:50:49.650Z,99641.28
2024-04-08T16:53:16.601Z,99643.38
2024-04-08T16:55:43.557Z,99649.13
2024-04-08T16:58:10.484Z,99655.13
2024-04-08T17:00:37.580Z,99649.25
2024-04-08T17:03:04.669Z,99651.47
2024-04-08T17:05:31.679Z,99653.06
2024-04-08T17:07:58.594Z,99644.69
2024-04-08T17:10:25.518Z,99642.19
2024-04-08T17:12:52.532Z,99644.16
2024-04-08T17:15:22.671Z,99637.25
2024-04-08T17:17:49.884Z,99640.88
2024-04-08T17:20:16.836Z,99635.94
2024-04-08T17:22:44.345Z,99640.16
2024-04-08T17:25:11.455Z,99642.00
2024-04-08T17:27:38.442Z,99640.38
2024-04-08T17:30:05.535Z,99647.78
2024-04-08T17:32:32.632Z,99644.34
2024-04-08T17:34:59.668Z,99644.09
2024-04-08T17:37:26.619Z,99648.63
2024-04-08T17:39:53.949Z,99660.94
2024-04-08T17:42:21.309Z,99655.34
2024-04-08T17:44:48.503Z,99656.59
2024-04-08T17:47:15.699Z,99657.69
2024-04-08T17:49:42.882Z,99657.03
2024-04-08T17:52:10.175Z,99662.16
2024-04-08T17:54:37.266Z,99666.91
2024-04-08T17:57:04.353Z,99670.25
2024-04-08T17:59:31.440Z,99664.94
2024-04-08T18:01:58.363Z,99668.31
2024-04-08T18:04:25.857Z,99670.72
2024-04-08T18:06:53.008Z,99674.28
2024-04-08T18:09:19.926Z,99672.47
2024-04-08T18:11:51.328Z,99675.13
2024-04-08T18:14:23.589Z,99668.19
2024-04-08T18:16:50.521Z,99677.03
2024-04-08T18:19:17.534Z,99672.91
2024-04-08T18:21:44.934Z,99660.31
2024-04-08T18:24:11.928Z,99659.91
2024-04-08T18:26:40.233Z,99656.72
2024-04-08T18:29:07.179Z,99661.81
2024-04-08T18:31:34.126Z,99657.91
2024-04-08T18:34:01.229Z,99655.16
2024-04-08T18:36:30.671Z,99657.75
2024-04-08T18:38:57.668Z,99661.13
2024-04-08T18:41:24.620Z,99659.28
2024-04-08T18:43:51.553Z,99665.72
2024-04-08T18:46:22.190Z,99651.91
2024-04-08T18:48:49.734Z,99662.59
2024-04-08T18:51:16.981Z,99661.28
2024-04-08T18:53:44.647Z,99654.50
2024-04-08T18:56:11.834Z,99651.63
2024-04-08T18:58:38.754Z,99655.56
2024-04-08T19:01:10.021Z,99652.47
2024-04-08T19:03:41.208Z,99654.91
2024-04-08T19:06:12.660Z,99649.09
2024-04-08T19:08:41.188Z,99649.31
2024-04-08T19:11:08.217Z,99646.00
2024-04-08T19:13:35.232Z,99650.56
2024-04-08T19:16:02.689Z,99650.84
2024-04-08T19:18:29.749Z,99655.81
2024-04-08T19:20:56.745Z,99653.69
2024-04-08T19:23:23.990Z,99653.66
2024-04-08T19:25:57.590Z,99647.56
2024-04-08T19:28:24.602Z,99652.91
2024-04-08T19:30:51.516Z,99648.13
2024-04-08T19:33:18.592Z,99646.75
2024-04-08T19:35:52.843Z,99651.66
2024-04-08T19:38:19.791Z,99643.38
2024-04-08T19:40:46.720Z,99649.09
2024-04-08T19:43:13.648Z,99647.81
2024-04-08T19:45:43.772Z,99635.25
2024-04-08T19:48:13.359Z,99648.13
2024-04-08T19:50:40.759Z,99642.91
2024-04-08T19:53:08.072Z,99647.50
2024-04-08T19:55:34.988Z,99648.78
2024-04-08T19:58:01.878Z,99645.84
2024-04-08T20:00:29.030Z,99645.16
2024-04-08T20:02:56.059Z,99643.88
2024-04-08T20:05:23.067Z,99641.00
2024-04-08T20:07:49.959Z,99641.81
2024-04-08T20:10:17.084Z,99636.59
2024-04-08T20:12:44.048Z,99642.13
2024-04-08T20:15:11.351Z,99644.06
2024-04-08T20:17:38.493Z,99646.31
2024-04-08T20:20:06.491Z,99635.78
2024-04-08T20:22:33.399Z,99632.50
2024-04-08T20:25:00.317Z,99629.38
2024-04-08T20:27:27.286Z,99627.94
2024-04-08T20:29:54.343Z,99627.94
2024-04-08T20:32:21.294Z,99622.47
2024-04-08T20:34:48.184Z,99621.75
2024-04-08T20:37:15.112Z,99623.84
2024-04-08T20:39:42.062Z,99624.34
2024-04-08T20:42:09.429Z,99612.44
2024-04-08T20:44:36.678Z,99615.75
2024-04-08T20:47:03.688Z,99611.56
2024-04-08T20:49:31.806Z,99603.53
2024-04-08T20:51:58.811Z,99597.59
2024-04-08T20:54:26.055Z,99598.94
2024-04-08T20:56:53.125Z,99595.44
2024-04-08T20:59:20.068Z,99594.78
2024-04-08T21:01:47.592Z,99595.53
2024-04-08T21:04:15.109Z,99599.28
2024-04-08T21:06:42.336Z,99592.97
2024-04-08T21:09:09.364Z,99595.91
2024-04-08T21:11:36.290Z,99587.66
2024-04-08T21:14:03.236Z,99595.50
2024-04-08T21:16:30.172Z,99597.84
2024-04-08T21:18:57.246Z,99594.06
2024-04-08T21:21:24.287Z,99590.16
2024-04-08T21:23:51.551Z,99591.50
2024-04-08T21:26:22.544Z,99590.44
2024-04-08T21:28:49.710Z,99587.47
2024-04-08T21:31:16.632Z,99587.97
2024-04-08T21:33:44.036Z,99585.41
2024-04-08T21:36:11.438Z,99581.94
2024-04-08T21:38:38.500Z,99568.38
2024-04-08T21:41:11.813Z,99576.56
2024-04-08T21:43:39.042Z,99573.84
2024-04-08T21:46:06.137Z,99572.38
2024-04-08T21:48:33.495Z,99565.31
2024-04-08T21:51:00.661Z,99563.88
2024-04-08T21:53:28.233Z,99562.44
2024-04-08T21:55:55.822Z,99561.00
2024-04-08T21:58:22.748Z,99547.81
2024-04-08T22:00:51.086Z,99554.63
2024-04-08T22:03:18.208Z,99552.03
2024-04-08T22:05:45.168Z,99552.34
2024-04-08T22:08:12.089Z,99545.44
2024-04-08T22:10:38.990Z,99547.13
2024-04-08T22:13:05.896Z,99544.66
2024-04-08T22:15:32.863Z,99546.31
2024-04-08T22:17:59.915Z,99546.00
2024-04-08T22:20:26.865Z,99549.25
2024-04-08T22:22:53.771Z,99532.75
2024-04-08T22:25:20.691Z,99540.63
2024-04-08T22:27:47.647Z,99539.81
2024-04-08T22:30:14.581Z,99535.38
2024-04-08T22:32:41.612Z,99528.50
2024-04-08T22:35:08.646Z,99539.13
2024-04-08T22:37:35.591Z,99537.69
2024-04-08T22:40:05.813Z,99534.16
2024-04-08T22:42:33.044Z,99536.06
2024-04-08T22:45:00.097Z,99528.88
2024-04-08T22:47:27.208Z,99533.09
2024-04-08T22:49:54.252Z,99526.56
2024-04-08T22:52:21.152Z,99527.44
2024-04-08T22:54:48.069Z,99519.53
2024-04-08T22:57:15.029Z,99517.72
2024-04-08T22:59:41.997Z,99519.75
2024-04-08T23:02:08.904Z,99511.38
2024-04-08T23:04:36.630Z,99514.78
2024-04-08T23:07:03.698Z,99520.28
2024-04-08T23:09:31.136Z,99511.38
2024-04-08T23:11:58.190Z,99517.81
2024-04-08T23:14:25.118Z,99516.22
2024-04-08T23:16:52.052Z,99518.59
2024-04-08T23:19:19.058Z,99516.31
2024-04-08T23:21:46.069Z,99508.50
2024-04-08T23:24:13.018Z,99514.84
2024-04-08T23:26:39.911Z,99517.41
2024-04-08T23:29:06.813Z,99514.19
2024-04-08T23:31:33.771Z,99512.81
2024-04-08T23:34:00.812Z,99511.00
2024-04-08T23:36:28.014Z,99504.66
2024-04-08T23:38:54.957Z,99503.94
2024-04-08T23:41:21.900Z,99507.53
2024-04-08T23:43:48.786Z,99505.94
2024-04-08T23:46:15.996Z,99505.06
2024-04-08T23:48:42.979Z,99505.38
2024-04-08T23:51:11.091Z,99508.28
2024-04-08T23:53:38.280Z,99503.91
2024-04-08T23:56:05.261Z,99503.44
2024-04-08T23:58:32.307Z,99495.50
